Time;durP1;ratioP1;P1;durP2;ratioP2;P2;SDS_P1;SDS_P2;PMS_P1;PMS_P2;Temp;Humidity;BMP_temperature;BMP_pressure;BME280_temperature;BME280_humidity;BME280_pressure;Samples;Min_cycle;Max_cycle;Signal;HPM_P1;HPM_P2
2021/11/07 00:01:12;;;;;;;8.05;3.70;;;;;;;7.46;94.22;99414.37;1725810;82;21041;-74
2021/11/07 00:03:42;;;;;;;5.37;3.33;;;;;;;7.47;94.33;99406.49;1749575;81;22359;-73
2021/11/07 00:08:47;;;;;;;4.50;3.27;;;;;;;7.50;94.26;99400.33;1661334;84;21313;-74
2021/11/07 00:13:56;;;;;;;3.85;3.08;;;;;;;7.52;94.11;99376.45;1655526;86;21078;-73
2021/11/07 00:16:25;;;;;;;6.40;4.22;;;;;;;7.52;94.08;99378.59;1658487;84;21124;-74
2021/11/07 00:19:05;;;;;;;5.62;3.27;;;;;;;7.52;94.16;99364.76;1661386;85;21001;-73
2021/11/07 00:21:25;;;;;;;5.95;3.77;;;;;;;7.53;94.10;99361.23;1656351;85;21525;-72
2021/11/07 00:24:04;;;;;;;6.28;4.20;;;;;;;7.54;94.01;99347.36;1655328;85;21068;-73
2021/11/07 00:26:46;;;;;;;4.08;3.30;;;;;;;7.55;94.00;99352.94;1661021;85;22303;-74
2021/11/07 00:29:11;;;;;;;4.85;3.50;;;;;;;7.55;93.88;99347.74;1658525;85;21172;-74
2021/11/07 00:31:48;;;;;;;4.78;4.10;;;;;;;7.55;93.86;99343.84;1656656;84;21572;-74
2021/11/07 00:37:03;;;;;;;6.30;4.60;;;;;;;7.56;93.77;99322.14;1657764;84;21655;-74
2021/11/07 00:42:07;;;;;;;6.60;3.60;;;;;;;7.57;93.80;99321.25;1662723;84;21181;-74
2021/11/07 00:46:58;;;;;;;5.92;4.50;;;;;;;7.58;93.66;99315.14;1763119;80;21555;-74
2021/11/07 00:49:31;;;;;;;6.92;3.80;;;;;;;7.57;93.70;99313.46;1758859;80;21006;-73
2021/11/07 00:52:06;;;;;;;5.90;3.90;;;;;;;7.56;93.63;99300.06;1741619;81;21042;-74
2021/11/07 00:54:29;;;;;;;5.33;3.98;;;;;;;7.55;93.72;99305.72;1729963;81;21110;-75
2021/11/07 00:56:57;;;;;;;3.30;3.00;;;;;;;7.56;93.62;99292.27;1768153;81;21476;-74
2021/11/07 01:02:16;;;;;;;8.08;3.90;;;;;;;7.56;93.51;99277.97;1767864;81;21000;-75
2021/11/07 01:04:47;;;;;;;6.30;3.25;;;;;;;7.57;93.48;99269.29;1760707;81;20958;-74
2021/11/07 01:07:15;;;;;;;5.10;3.25;;;;;;;7.57;93.40;99256.30;1765543;81;21259;-74
2021/11/07 01:09:42;;;;;;;9.63;4.17;;;;;;;7.57;93.25;99248.51;1757706;81;20985;-74
2021/11/07 01:12:10;;;;;;;6.45;3.30;;;;;;;7.58;93.36;99244.98;1768531;81;21508;-75
2021/11/07 01:14:39;;;;;;;3.55;2.98;;;;;;;7.57;93.28;99221.23;1768320;81;20989;-74
2021/11/07 01:17:07;;;;;;;4.85;3.00;;;;;;;7.57;93.22;99206.94;1763868;81;21068;-75
2021/11/07 01:19:34;;;;;;;5.20;3.10;;;;;;;7.56;93.02;99205.23;1766123;81;21990;-74
2021/11/07 01:22:03;;;;;;;6.43;3.60;;;;;;;7.55;93.09;99198.36;1757709;79;21000;-74
2021/11/07 01:24:36;;;;;;;10.25;4.70;;;;;;;7.54;93.02;99200.58;1765159;81;20958;-74
2021/11/07 01:27:38;;;;;;;6.40;3.35;;;;;;;7.54;93.00;99191.48;1757598;81;20985;-74
2021/11/07 01:29:41;;;;;;;4.45;3.47;;;;;;;7.51;92.97;99192.46;1753170;79;21068;-74
2021/11/07 01:32:05;;;;;;;6.05;3.80;;;;;;;7.51;93.00;99187.72;1763863;81;21560;-75
2021/11/07 01:37:12;;;;;;;9.58;3.87;;;;;;;7.48;92.91;99173.54;1750952;81;21024;-75
2021/11/07 01:39:48;;;;;;;4.60;3.20;;;;;;;7.46;92.83;99172.78;1760452;80;21052;-75
2021/11/07 01:42:15;;;;;;;7.33;4.08;;;;;;;7.42;92.76;99160.83;1759796;81;21027;-74
2021/11/07 01:44:40;;;;;;;7.85;3.50;;;;;;;7.39;92.79;99167.86;1762439;79;21904;-74
2021/11/07 01:47:10;;;;;;;5.97;3.80;;;;;;;7.35;92.65;99154.60;1757164;81;21024;-75
2021/11/07 01:49:40;;;;;;;4.65;3.25;;;;;;;7.31;92.69;99158.26;1756906;81;21571;-75
2021/11/07 01:52:08;;;;;;;7.45;4.03;;;;;;;7.28;92.73;99153.63;1760231;79;21583;-75
2021/11/07 01:54:49;;;;;;;6.67;3.60;;;;;;;7.23;92.68;99146.05;1763365;79;21073;-74
2021/11/07 01:57:20;;;;;;;5.10;3.27;;;;;;;7.23;92.71;99140.02;1768186;81;21153;-74
2021/11/07 01:59:52;;;;;;;5.62;4.28;;;;;;;7.20;92.74;99138.40;1761390;79;20958;-74
2021/11/07 02:02:22;;;;;;;6.37;3.80;;;;;;;7.19;92.71;99134.09;1760256;81;20977;-74
2021/11/07 02:04:51;;;;;;;6.50;4.08;;;;;;;7.17;92.69;99117.76;1731007;81;21032;-74
2021/11/07 02:07:18;;;;;;;6.00;3.83;;;;;;;7.15;92.63;99120.41;1761555;81;21067;-74
2021/11/07 02:09:45;;;;;;;6.57;4.17;;;;;;;7.14;92.68;99119.16;1757586;79;21908;-74
2021/11/07 02:12:12;;;;;;;4.28;2.85;;;;;;;7.15;92.77;99119.57;1759223;79;20978;-74
2021/11/07 02:14:40;;;;;;;4.12;3.10;;;;;;;7.17;92.75;99125.55;1764508;79;25394;-74
2021/11/07 02:17:08;;;;;;;7.65;4.08;;;;;;;7.17;92.60;99119.06;1760182;79;20938;-75
2021/11/07 02:19:35;;;;;;;6.25;4.10;;;;;;;7.16;92.56;99110.86;1757705;81;21279;-75
2021/11/07 02:22:03;;;;;;;8.43;3.90;;;;;;;7.15;92.59;99107.89;1764235;81;21153;-75
2021/11/07 02:24:34;;;;;;;4.90;3.52;;;;;;;7.15;92.55;99089.25;1757548;81;20942;-74
2021/11/07 02:27:01;;;;;;;5.90;4.12;;;;;;;7.14;92.51;99091.91;1765453;81;21278;-74
2021/11/07 02:29:32;;;;;;;3.47;3.00;;;;;;;7.11;92.35;99089.44;1734677;81;21603;-74
2021/11/07 02:31:58;;;;;;;7.58;4.22;;;;;;;7.09;92.24;99080.90;1756934;79;21048;-74
2021/11/07 02:34:30;;;;;;;6.22;4.62;;;;;;;7.06;92.12;99070.65;1757781;80;21080;-74
2021/11/07 02:36:58;;;;;;;4.50;3.62;;;;;;;7.03;92.19;99063.84;1753688;81;21563;-74
2021/11/07 02:39:25;;;;;;;5.67;3.83;;;;;;;7.00;92.06;99057.91;1759996;80;27242;-74
2021/11/07 02:41:56;;;;;;;8.00;4.55;;;;;;;6.94;92.06;99061.16;1755937;81;20969;-74
2021/11/07 02:44:36;;;;;;;4.78;3.12;;;;;;;6.92;92.16;99056.50;1733852;80;20974;-75
2021/11/07 02:47:06;;;;;;;7.08;4.58;;;;;;;6.89;92.02;99034.58;1732142;81;22073;-74
2021/11/07 02:49:34;;;;;;;7.20;4.35;;;;;;;6.85;91.99;99026.52;1761231;81;20943;-74
2021/11/07 02:52:04;;;;;;;6.70;4.40;;;;;;;6.81;91.90;99017.20;1758647;81;20954;-75
2021/11/07 02:54:32;;;;;;;6.53;4.10;;;;;;;6.77;91.94;99015.63;1761834;81;21084;-74
2021/11/07 02:57:01;;;;;;;8.83;4.67;;;;;;;6.76;92.06;99013.95;1758149;81;21035;-74
2021/11/07 02:59:33;;;;;;;8.33;4.12;;;;;;;6.72;91.92;99004.17;1761828;80;22442;-75
2021/11/07 03:02:00;;;;;;;5.35;4.08;;;;;;;6.70;92.02;99009.03;1760822;81;21080;-74
2021/11/07 03:04:27;;;;;;;4.45;3.58;;;;;;;6.69;92.01;99006.03;1755549;80;21021;-74
2021/11/07 03:06:54;;;;;;;6.03;4.35;;;;;;;6.66;91.94;98999.68;1760237;81;21072;-74
2021/11/07 03:09:25;;;;;;;5.67;4.37;;;;;;;6.62;91.96;98994.25;1761129;81;20962;-74
2021/11/07 03:11:53;;;;;;;8.18;5.00;;;;;;;6.61;91.94;98989.52;1756879;80;21139;-74
2021/11/07 03:14:34;;;;;;;7.42;4.65;;;;;;;6.59;91.96;98993.09;1760188;81;21006;-75
2021/11/07 03:17:03;;;;;;;6.95;4.62;;;;;;;6.56;91.77;98993.22;1753540;81;20985;-75
2021/11/07 03:19:31;;;;;;;7.58;4.65;;;;;;;6.55;91.92;98983.73;1760015;81;21556;-74
2021/11/07 03:22:03;;;;;;;6.78;4.85;;;;;;;6.53;91.88;98980.38;1759558;81;20950;-74
2021/11/07 03:24:30;;;;;;;10.65;4.58;;;;;;;6.50;91.91;98982.19;1756116;80;21132;-75
2021/11/07 03:26:58;;;;;;;5.58;4.20;;;;;;;6.49;91.88;99000.39;1756070;81;21655;-75
2021/11/07 03:29:33;;;;;;;6.33;4.15;;;;;;;6.49;91.88;99000.39;1759933;81;21529;-74
2021/11/07 03:32:06;;;;;;;7.75;4.33;;;;;;;6.49;91.91;98985.67;1760062;80;21001;-75
2021/11/07 03:34:33;;;;;;;8.18;4.30;;;;;;;6.50;91.96;98986.08;1761472;81;21496;-74
2021/11/07 03:37:05;;;;;;;7.25;4.47;;;;;;;6.49;91.93;98975.30;1765733;81;21282;-75
2021/11/07 03:39:38;;;;;;;5.37;3.08;;;;;;;6.52;91.93;98972.20;1758200;81;20989;-74
2021/11/07 03:42:11;;;;;;;6.25;4.70;;;;;;;6.53;91.79;98970.01;1763025;81;21065;-74
2021/11/07 03:44:40;;;;;;;5.22;3.77;;;;;;;6.54;91.82;98956.13;1766396;79;20907;-75
2021/11/07 03:47:08;;;;;;;7.40;4.45;;;;;;;6.55;91.89;98937.05;1757692;81;20961;-74
2021/11/07 03:49:39;;;;;;;6.37;4.67;;;;;;;6.56;91.72;98937.45;1771058;81;22022;-74
2021/11/07 03:52:07;;;;;;;4.90;3.90;;;;;;;6.56;91.70;98950.42;1757946;81;21572;-74
2021/11/07 03:54:37;;;;;;;5.35;3.72;;;;;;;6.56;91.72;98928.38;1763111;81;21032;-74
2021/11/07 03:57:11;;;;;;;6.25;4.50;;;;;;;6.58;91.70;98909.67;1764468;81;21614;-74
2021/11/07 03:59:40;;;;;;;5.35;4.40;;;;;;;6.58;91.66;98905.78;1760857;81;21072;-74
2021/11/07 04:02:08;;;;;;;7.70;4.75;;;;;;;6.58;91.66;98920.05;1757830;81;21528;-74
2021/11/07 04:04:35;;;;;;;7.30;4.78;;;;;;;6.59;91.66;98904.89;1764856;81;21053;-74
2021/11/07 04:07:02;;;;;;;9.45;4.95;;;;;;;6.59;91.68;98907.48;1764613;81;21480;-75
2021/11/07 04:09:29;;;;;;;6.12;3.77;;;;;;;6.61;91.65;98903.05;1760304;81;26814;-75
2021/11/07 04:11:56;;;;;;;5.83;4.40;;;;;;;6.59;91.49;98880.25;1738905;81;21073;-75
2021/11/07 04:14:23;;;;;;;7.72;4.08;;;;;;;6.59;91.44;98875.06;1765260;81;21520;-74
2021/11/07 04:16:50;;;;;;;4.92;4.03;;;;;;;6.57;91.45;98862.61;1761561;81;20961;-74
2021/11/07 04:19:17;;;;;;;5.93;4.37;;;;;;;6.56;91.41;98854.00;1760958;79;20906;-74
2021/11/07 04:21:48;;;;;;;8.35;4.40;;;;;;;6.56;91.51;98855.75;1763027;81;21170;-74
2021/11/07 04:24:14;;;;;;;6.05;4.10;;;;;;;6.58;91.53;98865.16;1763554;79;21005;-75
2021/11/07 04:26:40;;;;;;;4.92;4.12;;;;;;;6.58;91.49;98844.41;1768528;81;21395;-75
2021/11/07 04:29:07;;;;;;;7.17;4.33;;;;;;;6.57;91.43;98844.45;1760294;79;21896;-75
2021/11/07 04:31:34;;;;;;;6.45;4.22;;;;;;;6.57;91.40;98841.87;1757761;80;20992;-75
2021/11/07 04:34:01;;;;;;;5.10;4.37;;;;;;;6.57;91.43;98836.67;1761888;80;20950;-75
2021/11/07 04:36:27;;;;;;;7.35;4.47;;;;;;;6.56;91.34;98831.11;1760906;81;20936;-75
2021/11/07 04:38:54;;;;;;;6.85;4.50;;;;;;;6.56;91.41;98825.93;1761069;81;21228;-83
2021/11/07 04:41:21;;;;;;;6.23;4.07;;;;;;;6.57;91.39;98821.11;1760009;81;20954;-81
2021/11/07 04:43:49;;;;;;;7.33;4.20;;;;;;;6.57;91.30;98821.11;1761263;80;20930;-74
2021/11/07 04:46:17;;;;;;;6.40;4.90;;;;;;;6.56;91.31;98803.88;1756673;80;21485;-75
2021/11/07 04:48:47;;;;;;;8.58;5.03;;;;;;;6.55;91.35;98786.62;1737407;81;21607;-74
2021/11/07 04:51:13;;;;;;;6.47;5.20;;;;;;;6.55;91.35;98785.33;1759299;81;22240;-74
2021/11/07 04:53:40;;;;;;;9.03;5.65;;;;;;;6.55;91.32;98784.02;1754156;80;21588;-74
2021/11/07 04:56:08;;;;;;;6.10;5.28;;;;;;;6.55;91.32;98786.62;1755068;81;20934;-75
2021/11/07 04:58:36;;;;;;;8.58;5.53;;;;;;;6.52;91.24;98775.92;1757277;81;21160;-74
2021/11/07 05:01:05;;;;;;;7.33;4.92;;;;;;;6.50;91.23;98788.98;1759975;81;21477;-75
2021/11/07 05:03:35;;;;;;;8.20;5.33;;;;;;;6.51;91.34;98778.14;1757928;80;21536;-75
2021/11/07 05:06:03;;;;;;;5.53;3.83;;;;;;;6.51;91.32;98775.55;1759661;80;20954;-75
2021/11/07 05:08:29;;;;;;;6.97;4.85;;;;;;;6.54;91.34;98764.20;1757498;80;21097;-74
2021/11/07 05:10:56;;;;;;;6.95;5.17;;;;;;;6.55;91.32;98763.28;1759420;80;21474;-75
2021/11/07 05:13:23;;;;;;;6.12;4.87;;;;;;;6.54;91.28;98768.09;1758155;80;21513;-75
2021/11/07 05:15:50;;;;;;;8.83;5.33;;;;;;;6.52;91.20;98761.66;1759311;80;21112;-75
2021/11/07 05:18:18;;;;;;;7.72;6.12;;;;;;;6.52;91.20;98747.86;1759713;80;21037;-74
2021/11/07 05:20:47;;;;;;;6.50;5.08;;;;;;;6.52;91.25;98753.05;1756688;81;21007;-74
2021/11/07 05:23:14;;;;;;;8.08;5.62;;;;;;;6.52;91.24;98756.48;1759701;80;20997;-74
2021/11/07 05:25:41;;;;;;;7.15;5.90;;;;;;;6.52;91.22;98745.27;1756444;80;26630;-74
2021/11/07 05:28:09;;;;;;;7.00;5.62;;;;;;;6.51;91.22;98752.21;1760033;81;22490;-75
2021/11/07 05:30:37;;;;;;;9.78;6.70;;;;;;;6.52;91.14;98755.64;1756811;80;20997;-75
2021/11/07 05:33:04;;;;;;;6.72;5.90;;;;;;;6.50;91.22;98753.13;1758661;81;20985;-75
2021/11/07 05:35:31;;;;;;;7.83;5.80;;;;;;;6.52;91.18;98753.05;1750829;81;20942;-74
2021/11/07 05:37:57;;;;;;;10.23;7.33;;;;;;;6.49;91.14;98750.97;1754516;81;21117;-74
2021/11/07 05:40:24;;;;;;;7.80;6.83;;;;;;;6.49;91.21;98761.34;1746994;80;21482;-75
2021/11/07 05:42:51;;;;;;;8.37;5.67;;;;;;;6.50;91.24;98756.56;1748577;80;20912;-74
2021/11/07 05:45:18;;;;;;;7.37;6.20;;;;;;;6.49;91.21;98747.08;1736325;82;20971;-75
2021/11/07 05:47:45;;;;;;;10.48;6.80;;;;;;;6.49;91.25;98747.08;1726922;82;21002;-75
2021/11/07 05:50:14;;;;;;;9.00;6.35;;;;;;;6.49;91.24;98747.08;1748534;80;20955;-74
2021/11/07 05:52:42;;;;;;;8.55;6.58;;;;;;;6.52;91.25;98737.48;1739941;80;20968;-75
2021/11/07 05:55:09;;;;;;;8.53;6.15;;;;;;;6.52;91.17;98727.11;1746053;80;21590;-74
2021/11/07 05:57:36;;;;;;;11.30;6.60;;;;;;;6.50;91.19;98733.22;1724132;82;21498;-74
2021/11/07 06:00:06;;;;;;;8.90;6.35;;;;;;;6.49;91.21;98725.50;1732076;82;21568;-74
2021/11/07 06:02:33;;;;;;;8.05;6.60;;;;;;;6.49;91.21;98727.63;1754583;81;21079;-74
2021/11/07 06:05:04;;;;;;;8.18;6.80;;;;;;;6.48;91.14;98719.48;1749921;80;21483;-75
2021/11/07 06:07:31;;;;;;;10.65;7.42;;;;;;;6.46;91.18;98716.11;1721522;82;21497;-74
2021/11/07 06:09:59;;;;;;;10.47;7.07;;;;;;;6.46;91.14;98703.14;1732214;82;21055;-74
2021/11/07 06:12:25;;;;;;;;;;;;;;;6.46;91.17;98697.95;1739577;81;21502;-74
2021/11/07 06:14:52;;;;;;;10.32;6.97;;;;;;;6.46;91.18;98692.77;1732972;80;20437;-74
2021/11/07 06:17:19;;;;;;;8.45;6.95;;;;;;;6.47;91.18;98691.88;1737239;81;21181;-74
2021/11/07 06:19:46;;;;;;;8.23;6.65;;;;;;;6.46;91.20;98684.99;1735403;82;27176;-74
2021/11/07 06:22:13;;;;;;;11.30;7.50;;;;;;;6.46;91.11;98684.99;1732490;80;20899;-74
2021/11/07 06:24:40;;;;;;;10.58;7.22;;;;;;;6.44;91.09;98685.97;1729229;82;21102;-73
2021/11/07 06:27:07;;;;;;;8.40;7.37;;;;;;;6.41;91.09;98676.61;1735413;82;21101;-75
2021/11/07 06:29:34;;;;;;;8.90;8.00;;;;;;;6.39;91.12;98686.21;1732375;82;24310;-74
2021/11/07 06:32:01;;;;;;;9.50;8.17;;;;;;;6.38;91.12;98675.44;1740511;81;22393;-74
2021/11/07 06:34:28;;;;;;;12.23;9.18;;;;;;;6.35;91.13;98662.62;1730676;80;21227;-74
2021/11/07 06:36:56;;;;;;;10.68;7.90;;;;;;;6.35;91.20;98652.70;1750254;81;20990;-74
2021/11/07 06:39:23;;;;;;;11.20;7.97;;;;;;;6.33;91.22;98654.09;1746765;81;20987;-74
2021/11/07 06:41:50;;;;;;;7.35;6.35;;;;;;;6.35;91.29;98654.84;1759910;81;21615;-74
2021/11/07 06:44:19;;;;;;;9.20;7.85;;;;;;;6.33;91.17;98647.61;1744785;80;21638;-74
2021/11/07 06:46:46;;;;;;;10.43;6.80;;;;;;;6.32;91.19;98640.73;1757361;81;20986;-74
2021/11/07 06:49:14;;;;;;;11.17;8.13;;;;;;;6.34;91.27;98640.20;1746966;80;21084;-73
2021/11/07 06:51:44;;;;;;;8.53;7.33;;;;;;;6.35;91.27;98637.98;1753085;80;21038;-74
2021/11/07 06:54:11;;;;;;;10.23;7.65;;;;;;;6.36;91.23;98628.02;1745329;81;21139;-74
2021/11/07 06:56:40;;;;;;;10.63;7.30;;;;;;;6.39;91.27;98630.46;1776260;80;20927;-74
2021/11/07 06:59:08;;;;;;;9.05;7.30;;;;;;;6.44;91.39;98623.31;1769571;80;21549;-74
2021/11/07 07:01:36;;;;;;;;;;;;;;;6.50;91.30;98626.06;1775686;80;20969;-74
2021/11/07 07:04:04;;;;;;;8.33;7.17;;;;;;;6.57;91.21;98616.22;1772347;79;20192;-74
2021/11/07 07:06:31;;;;;;;8.65;7.28;;;;;;;6.61;91.27;98615.14;1757367;81;20991;-74
2021/11/07 07:09:09;;;;;;;10.18;6.80;;;;;;;6.68;91.28;98611.35;1752572;81;21037;-73
2021/11/07 07:11:49;;;;;;;8.78;6.72;;;;;;;6.75;91.17;98620.53;1753730;81;21016;-75
2021/11/07 07:14:22;;;;;;;7.65;6.05;;;;;;;6.78;91.07;98612.59;1763333;80;22262;-72
2021/11/07 07:19:53;;;;;;;10.35;7.87;;;;;;;6.76;90.82;98609.22;1756572;81;21566;-72
2021/11/07 07:30:11;;;;;;;7.42;5.67;;;;;;;6.67;90.96;98602.73;1761942;81;21017;-72
2021/11/07 07:35:03;;;;;;;9.38;5.67;;;;;;;6.63;90.94;98604.25;1752593;81;21022;-72
2021/11/07 07:37:30;;;;;;;8.70;7.12;;;;;;;6.61;90.94;98602.17;1707638;82;21016;-72
2021/11/07 07:39:56;;;;;;;9.30;7.35;;;;;;;6.59;90.99;98602.73;1735942;81;21060;-72
2021/11/07 07:42:23;;;;;;;11.03;6.83;;;;;;;6.56;90.94;98596.41;1737164;81;20922;-73
2021/11/07 07:44:52;;;;;;;6.83;5.35;;;;;;;6.54;91.00;98593.88;1737165;81;21002;-72
2021/11/07 07:47:20;;;;;;;7.40;6.37;;;;;;;6.37;91.11;98566.16;1732446;82;21555;-75
2021/11/07 07:49:51;;;;;;;5.50;4.83;;;;;;;6.42;90.93;98578.45;1775597;80;21541;-73
2021/11/07 07:52:22;;;;;;;7.75;5.58;;;;;;;6.39;91.06;98573.42;1777542;79;20946;-73
2021/11/07 07:54:48;;;;;;;6.92;5.67;;;;;;;6.36;91.06;98572.28;1778893;79;21373;-73
2021/11/07 07:57:15;;;;;;;5.70;5.10;;;;;;;6.36;91.16;98561.91;1776240;79;26667;-73
2021/11/07 07:59:41;;;;;;;6.60;5.05;;;;;;;6.36;91.20;98572.28;1777487;80;20989;-71
2021/11/07 08:02:09;;;;;;;9.33;6.30;;;;;;;6.36;91.27;98569.69;1773054;79;20942;-75
2021/11/07 08:04:38;;;;;;;5.42;4.92;;;;;;;6.41;91.38;98559.94;1766177;79;21059;-75
2021/11/07 08:07:04;;;;;;;;;;;;;;;6.44;91.34;98562.81;1779947;80;20986;-75
2021/11/07 08:09:32;;;;;;;5.70;5.03;;;;;;;6.48;91.45;98553.52;1768820;80;21029;-73
2021/11/07 08:11:59;;;;;;;4.80;4.37;;;;;;;6.50;91.38;98553.45;1771714;80;21088;-73
2021/11/07 08:14:25;;;;;;;5.47;4.97;;;;;;;6.49;91.33;98544.81;1775738;79;21588;-74
2021/11/07 08:16:52;;;;;;;6.03;4.95;;;;;;;6.53;91.37;98544.69;1774948;79;20996;-73
2021/11/07 08:19:18;;;;;;;4.65;3.50;;;;;;;6.50;91.30;98538.73;1768829;80;21737;-73
2021/11/07 08:21:45;;;;;;;4.00;3.60;;;;;;;6.47;91.31;98542.77;1777271;79;21502;-73
2021/11/07 08:24:14;;;;;;;6.45;4.67;;;;;;;6.45;91.30;98542.47;1777957;79;20942;-73
2021/11/07 08:26:42;;;;;;;6.03;4.78;;;;;;;6.39;91.26;98538.42;1775283;79;20987;-73
2021/11/07 08:29:13;;;;;;;5.05;4.25;;;;;;;6.35;91.29;98533.45;1775075;79;20958;-72
2021/11/07 08:31:49;;;;;;;5.10;4.20;;;;;;;6.33;91.43;98537.43;1755134;80;21016;-72
2021/11/07 08:34:14;;;;;;;3.85;3.47;;;;;;;6.33;91.52;98532.67;1749938;80;21898;-72
2021/11/07 08:39:57;;;;;;;3.98;3.37;;;;;;;6.33;91.67;98516.69;1753046;81;21123;-72
2021/11/07 08:41:44;;;;;;;3.20;2.70;;;;;;;6.39;91.76;98515.09;1738196;81;20947;-73
2021/11/07 09:00:31;;;;;;;2.92;2.70;;;;;;;6.39;91.81;98496.94;1754217;81;21208;-72
2021/11/07 09:03:41;;;;;;;3.40;3.05;;;;;;;6.38;91.76;98490.05;1780636;78;21025;-72
2021/11/07 09:06:13;;;;;;;5.75;3.80;;;;;;;6.37;91.78;98488.39;1694619;82;20993;-70
2021/11/07 09:08:29;;;;;;;5.00;3.40;;;;;;;6.41;91.93;98482.16;1702166;82;21003;-72
2021/11/07 09:10:58;;;;;;;3.17;2.50;;;;;;;6.44;91.97;98463.84;1696025;82;21060;-72
2021/11/07 09:13:25;;;;;;;3.37;2.80;;;;;;;6.46;91.86;98469.77;1720335;82;21725;-72
2021/11/07 09:15:52;;;;;;;2.50;2.12;;;;;;;6.46;91.94;98466.34;1741658;80;21646;-72
2021/11/07 09:18:20;;;;;;;2.40;2.20;;;;;;;6.48;91.92;98473.13;1716181;81;21029;-72
2021/11/07 09:20:56;;;;;;;3.25;2.85;;;;;;;6.50;91.97;98468.72;1736683;81;21560;-71
2021/11/07 09:23:35;;;;;;;2.47;2.20;;;;;;;6.50;91.91;98468.72;1700681;82;21038;-72
2021/11/07 09:28:36;;;;;;;3.42;2.45;;;;;;;6.47;91.93;98461.09;1693238;82;21631;-71
2021/11/07 09:31:11;;;;;;;3.20;2.40;;;;;;;6.49;92.12;98455.81;1699400;82;21291;-72
2021/11/07 09:38:47;;;;;;;2.40;2.20;;;;;;;6.53;92.14;98446.14;1737509;80;21525;-74
2021/11/07 09:44:01;;;;;;;1.57;1.40;;;;;;;6.53;92.13;98438.36;1740159;81;21057;-72
2021/11/07 09:49:01;;;;;;;3.22;2.55;;;;;;;6.57;92.30;98424.31;1739201;80;21064;-71
2021/11/07 09:51:36;;;;;;;2.25;2.05;;;;;;;6.61;92.29;98425.81;1721394;82;21643;-72
2021/11/07 09:53:56;;;;;;;2.45;2.25;;;;;;;6.69;92.47;98423.66;1737250;80;21035;-73
2021/11/07 09:56:24;;;;;;;;;;;;;;;6.80;92.52;98417.91;1711782;81;21136;-72
2021/11/07 09:58:54;;;;;;;1.87;1.70;;;;;;;6.84;92.31;98411.20;1719676;82;20153;-72
2021/11/07 10:01:24;;;;;;;2.40;2.00;;;;;;;6.88;92.29;98413.16;1734488;81;21073;-75
2021/11/07 10:03:51;;;;;;;1.90;1.72;;;;;;;6.87;92.18;98408.44;1681245;83;22127;-64
2021/11/07 10:06:34;;;;;;;3.20;1.90;;;;;;;6.88;92.20;98401.02;1707613;82;21076;-63
2021/11/07 10:09:01;;;;;;;3.75;1.50;;;;;;;6.85;92.13;98407.67;1710663;81;21081;-63
2021/11/07 10:11:37;;;;;;;2.83;1.55;;;;;;;6.82;92.13;98398.76;1702806;82;21035;-63
2021/11/07 10:14:18;;;;;;;3.70;2.00;;;;;;;6.81;92.22;98398.39;1705219;82;20952;-63
2021/11/07 10:16:53;;;;;;;2.37;1.80;;;;;;;6.81;92.31;98400.98;1718939;82;22274;-63
2021/11/07 10:19:33;;;;;;;3.25;2.17;;;;;;;6.83;92.38;98390.05;1748228;80;21071;-64
2021/11/07 10:21:57;;;;;;;4.28;3.27;;;;;;;6.81;92.40;98382.83;1744705;80;21094;-70
2021/11/07 10:24:39;;;;;;;22.55;13.08;;;;;;;6.80;92.44;98387.62;1749775;80;23604;-72
2021/11/07 10:27:11;;;;;;;7.00;4.65;;;;;;;6.77;92.45;98387.78;1745098;80;21033;-71
2021/11/07 10:29:45;;;;;;;5.33;3.75;;;;;;;6.79;92.59;98391.14;1732467;80;21469;-72
2021/11/07 10:32:35;;;;;;;3.98;2.85;;;;;;;6.84;92.69;98388.31;1729472;80;37617;-71
2021/11/07 10:41:10;;;;;;;4.20;3.20;;;;;;;7.00;92.65;98377.93;1705451;82;20946;-72
2021/11/07 10:54:25;;;;;;;2.40;1.80;;;;;;;7.02;92.59;98360.06;1698440;82;21061;-72
2021/11/07 10:57:17;;;;;;;2.75;2.17;;;;;;;7.02;92.66;98361.83;1715708;82;21142;-71
2021/11/07 11:00:09;;;;;;;4.15;2.72;;;;;;;7.05;92.80;98340.89;1709763;82;21118;-72
2021/11/07 11:02:40;;;;;;;3.30;2.05;;;;;;;7.07;92.80;98354.63;1730219;81;21029;-73
2021/11/07 11:05:25;;;;;;;3.98;3.10;;;;;;;7.10;92.84;98357.05;1719834;80;20915;-71
2021/11/07 11:08:04;;;;;;;4.25;1.98;;;;;;;7.10;92.78;98349.27;1720591;82;21021;-72
2021/11/07 11:10:43;;;;;;;2.92;2.30;;;;;;;7.07;92.72;98347.67;1739965;82;21132;-72
2021/11/07 11:13:21;;;;;;;4.35;2.65;;;;;;;7.08;92.77;98343.31;1730495;81;21037;-71
2021/11/07 11:15:54;;;;;;;5.53;3.05;;;;;;;7.09;92.79;98338.52;1728435;82;20950;-71
2021/11/07 11:18:46;;;;;;;4.42;3.10;;;;;;;7.12;92.88;98324.07;1739624;82;21021;-72
2021/11/07 11:21:42;;;;;;;3.02;1.98;;;;;;;7.17;92.91;98331.15;1737105;81;21505;-71
2021/11/07 11:23:56;;;;;;;3.62;1.87;;;;;;;7.22;92.93;98317.42;1723568;80;20985;-72
2021/11/07 11:26:41;;;;;;;2.00;1.80;;;;;;;7.28;92.91;98321.44;1734247;82;21670;-72
2021/11/07 11:29:10;;;;;;;3.40;2.02;;;;;;;7.30;92.79;98326.09;1735667;82;21064;-71
2021/11/07 11:31:35;;;;;;;3.42;2.15;;;;;;;7.34;92.81;98325.02;1732150;82;20939;-71
2021/11/07 11:33:56;;;;;;;4.80;2.52;;;;;;;7.39;92.90;98321.23;1730943;81;20907;-71
2021/11/07 11:39:04;;;;;;;2.93;2.47;;;;;;;7.67;93.10;98298.84;1733803;82;21568;-71
2021/11/07 11:41:54;;;;;;;3.02;2.35;;;;;;;7.75;92.80;98301.84;1743065;82;21571;-71
2021/11/07 11:43:55;;;;;;;4.10;2.10;;;;;;;7.80;92.61;98297.21;1728702;82;21497;-71
2021/11/07 11:47:36;;;;;;;3.20;2.02;;;;;;;7.84;92.66;98290.92;1736147;82;21619;-71
2021/11/07 11:49:41;;;;;;;4.33;2.30;;;;;;;7.95;92.56;98293.34;1724015;82;21157;-71
2021/11/07 12:00:27;;;;;;;4.50;2.90;;;;;;;8.08;92.46;98278.22;1706748;82;20953;-71
2021/11/07 12:03:06;;;;;;;4.97;1.80;;;;;;;8.15;92.42;98276.10;1707963;82;21337;-71
2021/11/07 12:05:48;;;;;;;3.45;1.80;;;;;;;8.18;92.29;98273.31;1725494;82;21076;-71
2021/11/07 12:08:22;;;;;;;5.15;2.40;;;;;;;8.16;92.08;98264.77;1740510;81;21112;-71
2021/11/07 12:11:02;;;;;;;3.45;1.75;;;;;;;8.10;91.84;98257.34;1720413;82;21081;-71
2021/11/07 12:13:47;;;;;;;3.02;2.00;;;;;;;8.10;92.22;98262.55;1725903;82;20969;-70
2021/11/07 12:16:27;;;;;;;4.53;2.20;;;;;;;8.15;92.28;98254.44;1699508;84;21922;-71
2021/11/07 12:19:02;;;;;;;3.90;1.65;;;;;;;8.22;92.44;98264.39;1740137;81;21021;-68
2021/11/07 12:21:56;;;;;;;6.95;2.12;;;;;;;8.29;92.28;98257.90;1694897;82;20978;-69
2021/11/07 12:24:27;;;;;;;3.80;2.08;;;;;;;8.33;92.12;98262.91;1699112;82;21046;-73
2021/11/07 12:27:22;;;;;;;3.52;1.75;;;;;;;8.40;92.29;98259.02;1707369;81;21539;-73
2021/11/07 12:29:53;;;;;;;5.15;2.50;;;;;;;8.51;92.28;98259.19;1642895;85;21295;-70
2021/11/07 12:32:28;;;;;;;5.67;3.50;;;;;;;8.57;92.06;98264.03;1648903;85;20989;-74
2021/11/07 12:35:38;;;;;;;7.35;3.92;;;;;;;8.58;91.85;98262.26;1650573;85;21129;-80
2021/11/07 12:41:28;;;;;;;5.50;3.30;;;;;;;8.56;91.73;98257.14;1629391;86;21172;-69
2021/11/07 12:44:02;;;;;;;5.35;2.33;;;;;;;8.53;91.54;98242.20;1591783;87;21048;-75
2021/11/07 12:47:04;;;;;;;5.75;2.67;;;;;;;8.41;91.36;98247.70;1589450;88;21698;-72
2021/11/07 12:49:35;;;;;;;8.23;2.83;;;;;;;8.38;91.58;98246.56;1626103;86;21163;-71
2021/11/07 12:52:23;;;;;;;4.15;2.42;;;;;;;8.30;91.35;98249.16;1619520;87;21728;-73
2021/11/07 12:54:54;;;;;;;5.83;2.85;;;;;;;8.28;91.50;98249.70;1625403;87;21202;-71
2021/11/07 12:57:26;;;;;;;6.42;2.67;;;;;;;8.23;91.47;98249.17;1593165;88;21176;-77
2021/11/07 12:59:59;;;;;;;5.12;2.90;;;;;;;8.17;91.38;98251.30;1617016;87;21151;-76
2021/11/07 13:02:31;;;;;;;6.75;2.60;;;;;;;8.11;91.51;98251.20;1619231;86;21060;-76
2021/11/07 13:05:17;;;;;;;4.83;2.17;;;;;;;8.06;91.59;98246.27;1640390;83;21239;-77
2021/11/07 13:07:50;;;;;;;8.23;2.80;;;;;;;8.03;91.57;98247.76;1711472;81;21133;-72
2021/11/07 13:13:04;;;;;;;3.98;1.85;;;;;;;8.00;91.61;98258.81;1659032;83;21832;-73
2021/11/07 13:20:57;;;;;;;5.67;2.83;;;;;;;7.95;91.51;98263.45;1737706;80;20954;-74
2021/11/07 13:26:05;;;;;;;4.60;1.80;;;;;;;8.06;91.76;98268.84;1735827;81;21169;-76
2021/11/07 13:31:08;;;;;;;2.55;1.40;;;;;;;8.11;91.52;98269.40;1719276;81;21124;-76
2021/11/07 13:33:31;;;;;;;2.17;1.30;;;;;;;8.06;91.37;98274.03;1722722;81;21056;-77
2021/11/07 13:36:00;;;;;;;4.25;1.72;;;;;;;7.99;91.26;98275.34;1724203;81;21598;-80
2021/11/07 13:38:30;;;;;;;3.33;1.62;;;;;;;7.93;91.26;98262.73;1723765;81;21072;-79
2021/11/07 13:40:56;;;;;;;5.10;1.62;;;;;;;7.82;91.26;98266.78;1734367;81;21053;-79
2021/11/07 13:43:29;;;;;;;4.20;1.83;;;;;;;7.79;91.43;98271.34;1733278;81;21050;-80
2021/11/07 13:45:57;;;;;;;6.58;2.12;;;;;;;7.76;91.45;98278.84;1737413;81;21025;-75